Lloc web orientat als practicants d'activitats
Centenari de l'SMC: 100 anys mirant el cel

Dades de l'estació automàtica Vilanova de Meià

?
?

Resum diari

22:30 TU
Dades diàries de l'estació meteorològica
Temperatura mitjana 9.9 °C
Temperatura màxima 17.0 °C 13:55 TU
Temperatura mínima 3.2 °C 4:41 TU
Humitat relativa mitjana 60%
Precipitació acumulada 0.0 mm
Ratxa màxima del vent (10 m) 26.6 km/h - 187º 13:59 TU
Pressió atmosfèrica mitjana 1023.3 hPa

El tram horari està expressat en Temps Universal (TU). Cal sumar una hora en horari d'hivern i dues en horari d'estiu per passar a l'hora oficial.

Vilanova de Meià

Metadades estació meteorològica
Municipi Vilanova de Meià
Comarca Noguera
Altitud 594 m
Data alta 01.04.1996
Estat actual Operativa
Dades de període
Període
TU
TM
°C
TX
°C
TN
°C
HRM
%
PPT
mm
VVM (10 m)
km/h
DVM (10 m)
graus
VVX (10 m)
km/h
PM
hPa
00:00 - 00:30 5.1 5.2 4.9 73 0.0 4.3 30 8.3 1026.2
00:30 - 01:00 4.6 5.0 4.4 76 0.0 4.3 32 7.2 1026.3
01:00 - 01:30 4.4 4.6 4.3 77 0.0 4.7 31 9.4 1026.2
01:30 - 02:00 4.5 4.8 4.3 77 0.0 5.8 26 9.0 1026.1
02:00 - 02:30 4.8 4.9 4.7 76 0.0 5.4 26 9.0 1025.8
02:30 - 03:00 4.6 4.8 4.5 77 0.0 5.8 27 8.3 1025.5
03:00 - 03:30 4.6 4.8 4.5 75 0.0 5.4 29 9.0 1025.3
03:30 - 04:00 4.4 4.7 4.1 77 0.0 3.6 30 6.8 1025.2
04:00 - 04:30 3.9 4.1 3.5 78 0.0 4.3 27 7.2 1025.3
04:30 - 05:00 3.3 3.5 3.2 80 0.0 6.1 27 9.7 1025.6
05:00 - 05:30 3.4 3.4 3.3 77 0.0 5.4 30 9.0 1025.7
05:30 - 06:00 3.6 3.7 3.4 75 0.0 4.7 23 10.8 1025.8
06:00 - 06:30 3.6 3.8 3.3 76 0.0 4.3 31 6.5 1026.1
06:30 - 07:00 3.7 4.0 3.6 77 0.0 4.3 28 6.5 1026.4
07:00 - 07:30 4.6 5.8 4.0 76 0.0 3.2 34 5.0 1026.1
07:30 - 08:00 8.0 10.1 5.8 66 0.0 1.8 109 7.6 1025.2
08:00 - 08:30 10.7 11.0 9.9 53 0.0 6.5 208 11.9 1024.5
08:30 - 09:00 11.5 11.9 10.9 48 0.0 7.2 198 13.3 1024.5
09:00 - 09:30 11.7 12.5 11.0 46 0.0 5.8 174 12.2 1024.4
09:30 - 10:00 12.8 13.4 12.2 44 0.0 6.5 206 15.8 1024.0
10:00 - 10:30 13.5 14.4 13.1 44 0.0 7.6 200 15.5 1023.7
10:30 - 11:00 14.0 14.6 13.1 41 0.0 7.6 195 16.2 1023.3
11:00 - 11:30 14.7 15.2 14.1 39 0.0 7.9 193 18.7 1022.9
11:30 - 12:00 14.8 15.4 14.2 40 0.0 9.7 187 20.9 1022.6
12:00 - 12:30 15.0 15.5 14.2 38 0.0 10.1 187 21.2 1022.2
12:30 - 13:00 15.2 15.6 14.7 34 0.0 10.8 185 20.9 1021.9
13:00 - 13:30 15.5 16.1 15.1 30 0.0 11.5 186 24.5 1021.6
13:30 - 14:00 16.3 17.0 15.7 26 0.0 12.6 187 26.6 1021.0
14:00 - 14:30 16.5 16.8 15.8 26 0.0 12.2 197 24.8 1020.5
14:30 - 15:00 15.6 16.2 14.9 30 0.0 10.4 188 20.2 1020.5
15:00 - 15:30 15.3 15.8 14.9 31 0.0 9.4 189 16.9 1020.3
15:30 - 16:00 14.9 15.1 14.6 31 0.0 10.1 199 19.4 1020.2
16:00 - 16:30 14.2 14.6 14.0 33 0.0 10.1 199 18.4 1020.3
16:30 - 17:00 13.8 14.0 13.6 36 0.0 7.6 194 13.7 1020.3
17:00 - 17:30 13.5 13.6 13.3 38 0.0 4.3 187 9.7 1020.1
17:30 - 18:00 13.1 13.3 12.4 45 0.0 4.7 186 13.0 1020.2
18:00 - 18:30 12.1 12.4 11.9 67 0.0 4.7 171 9.7 1020.7
18:30 - 19:00 11.7 11.9 11.6 70 0.0 2.9 150 7.9 1021.0
19:00 - 19:30 11.3 11.5 10.8 75 0.0 1.8 216 6.1 1021.4
19:30 - 20:00 10.6 10.8 10.4 78 0.0 0.7 61 4.3 1022.0
20:00 - 20:30 10.4 10.5 10.0 80 0.0 1.4 8 3.6 1022.3
20:30 - 21:00 9.7 9.9 9.4 83 0.0 2.2 34 4.3 1022.6
21:00 - 21:30 9.4 9.6 9.1 83 0.0 2.9 36 5.8 1022.5
21:30 - 22:00 9.1 9.3 9.0 84 0.0 3.2 40 7.6 1022.4
22:00 - 22:30 8.6 9.0 8.4 88 0.0 1.8 118 6.1 1022.5
22:30 - 23:00 8.8 9.2 8.5 87 0.0 2.9 25 6.8 1022.4

Les dades en taronja només han passat un control de qualitat automàtic. Resta pendent la seva validació definitiva.